KARV

Lakeland / Noble F Lee Memorial Field Airport

Minocqua-Woodruff, Wisconsin, USA
METAR KARV 150035Z AUTO 00000KT 10SM SCT060 SCT070 SCT085 22/20 A2994 RMK AO2 T02220200
Observed Flight Rules
Aug-15 @ 00:35 UTC (29 minutes ago) Visual Flight Rules
Visibility Clouds
10 miles
  • Scattered at 6,000' AGL
  • Scattered at 7,000' AGL
  • Scattered at 8,500' AGL
Temperatures Readings
Current 22°C / 72°F
Dewpoint 20°C / 68°F
Humidity 88%
Altimeter 29.94" Hg
Pressure 1014 hPa
Elevation 496
METAR KARV 150035Z AUTO 00000KT 10SM SCT060 SCT070 SCT085 22/20 A2994 RMK AO2 T02220200
Observed Flight Rules
Aug-15 @ 00:35 UTC
(29 minutes ago)
VFR
Clouds
  • Scattered at 6,000' AGL
  • Scattered at 7,000' AGL
  • Scattered at 8,500' AGL
Temperature Dewpoint
22°C / 72°F 20°C / 68°F
Humidity Altimeter Pressure
88% 29.94" Hg 1014 hPa